Terminal Aerodrome Forecast
Issued by NWS

Home | Current Version | Previous Version | Text Only | Print | Product List | Glossary On
Versions: 1 2 3 4 5 6 7 8 9 10 11 12 13 14 15
000
FTUS43 KAPX 260523
TAFTVC
TAF
KTVC 260523Z 2606/2706 15005KT P6SM SCT050 BKN080
      TEMPO 2606/2609 5SM -SHRA OVC050
     FM260900 15005KT 6SM BR VCSH SCT060 BKN090
     FM261300 19006KT P6SM SCT050
     FM261900 20007KT P6SM VCTS SCT050CB BKN100
     FM270200 23006KT P6SM SCT100=

USA.gov is the U.S. government's official web portal to all federal, state and local government web resources and services.